sensor_id;sensor_type;location;lat;lon;timestamp;temperature;humidity
2957;DHT22;1488;51.548;7.222;2023-05-19T00:00:03;22.60;70.40
2957;DHT22;1488;51.548;7.222;2023-05-19T00:02:31;22.60;70.40
2957;DHT22;1488;51.548;7.222;2023-05-19T00:04:59;22.70;70.30
2957;DHT22;1488;51.548;7.222;2023-05-19T00:07:30;22.60;70.20
2957;DHT22;1488;51.548;7.222;2023-05-19T00:09:59;22.60;70.20
2957;DHT22;1488;51.548;7.222;2023-05-19T00:12:26;22.60;70.30
2957;DHT22;1488;51.548;7.222;2023-05-19T00:14:53;22.60;70.60
2957;DHT22;1488;51.548;7.222;2023-05-19T00:17:21;22.60;70.20
2957;DHT22;1488;51.548;7.222;2023-05-19T00:19:48;22.60;70.10
2957;DHT22;1488;51.548;7.222;2023-05-19T00:22:14;22.60;70.40
2957;DHT22;1488;51.548;7.222;2023-05-19T00:24:41;22.60;70.40
2957;DHT22;1488;51.548;7.222;2023-05-19T00:27:09;22.60;70.30
2957;DHT22;1488;51.548;7.222;2023-05-19T00:29:36;22.60;70.10
2957;DHT22;1488;51.548;7.222;2023-05-19T00:32:03;22.60;70.40
2957;DHT22;1488;51.548;7.222;2023-05-19T00:34:30;22.60;70.50
2957;DHT22;1488;51.548;7.222;2023-05-19T00:36:57;22.60;70.60
2957;DHT22;1488;51.548;7.222;2023-05-19T00:39:24;22.50;70.60
2957;DHT22;1488;51.548;7.222;2023-05-19T00:41:51;22.60;70.80
2957;DHT22;1488;51.548;7.222;2023-05-19T00:44:19;22.50;70.30
2957;DHT22;1488;51.548;7.222;2023-05-19T00:46:45;22.50;70.30
2957;DHT22;1488;51.548;7.222;2023-05-19T00:49:12;22.60;70.10
2957;DHT22;1488;51.548;7.222;2023-05-19T00:51:39;22.50;70.10
2957;DHT22;1488;51.548;7.222;2023-05-19T00:54:07;22.50;70.00
2957;DHT22;1488;51.548;7.222;2023-05-19T00:56:34;22.50;70.00
2957;DHT22;1488;51.548;7.222;2023-05-19T00:59:01;22.70;70.30
2957;DHT22;1488;51.548;7.222;2023-05-19T01:01:29;22.50;70.00
2957;DHT22;1488;51.548;7.222;2023-05-19T01:03:56;22.50;69.60
2957;DHT22;1488;51.548;7.222;2023-05-19T01:06:24;22.50;69.70
2957;DHT22;1488;51.548;7.222;2023-05-19T01:08:52;22.50;70.10
2957;DHT22;1488;51.548;7.222;2023-05-19T01:11:19;22.50;69.90
2957;DHT22;1488;51.548;7.222;2023-05-19T01:13:46;22.50;70.30
2957;DHT22;1488;51.548;7.222;2023-05-19T01:16:23;22.50;70.10
2957;DHT22;1488;51.548;7.222;2023-05-19T01:18:58;22.50;70.10
2957;DHT22;1488;51.548;7.222;2023-05-19T01:27:41;22.50;70.30
2957;DHT22;1488;51.548;7.222;2023-05-19T01:30:26;22.50;70.20
2957;DHT22;1488;51.548;7.222;2023-05-19T01:32:57;22.60;70.20
2957;DHT22;1488;51.548;7.222;2023-05-19T01:35:25;22.40;69.90
2957;DHT22;1488;51.548;7.222;2023-05-19T01:37:56;22.40;70.00
2957;DHT22;1488;51.548;7.222;2023-05-19T01:40:25;22.50;70.20
2957;DHT22;1488;51.548;7.222;2023-05-19T01:42:54;22.50;70.10
2957;DHT22;1488;51.548;7.222;2023-05-19T01:45:21;22.50;69.90
2957;DHT22;1488;51.548;7.222;2023-05-19T01:47:52;22.40;69.60
2957;DHT22;1488;51.548;7.222;2023-05-19T01:50:19;22.40;69.80
2957;DHT22;1488;51.548;7.222;2023-05-19T01:52:46;22.40;69.90
2957;DHT22;1488;51.548;7.222;2023-05-19T01:55:13;22.50;69.70
2957;DHT22;1488;51.548;7.222;2023-05-19T01:57:46;22.60;69.90
2957;DHT22;1488;51.548;7.222;2023-05-19T02:00:21;22.50;70.00
2957;DHT22;1488;51.548;7.222;2023-05-19T02:02:58;22.40;70.00
2957;DHT22;1488;51.548;7.222;2023-05-19T02:05:36;22.40;70.20
2957;DHT22;1488;51.548;7.222;2023-05-19T02:08:12;22.40;70.20
2957;DHT22;1488;51.548;7.222;2023-05-19T02:10:40;22.40;70.10
2957;DHT22;1488;51.548;7.222;2023-05-19T02:13:10;22.40;70.10
2957;DHT22;1488;51.548;7.222;2023-05-19T02:15:40;22.40;70.70
2957;DHT22;1488;51.548;7.222;2023-05-19T02:18:10;22.40;70.10
2957;DHT22;1488;51.548;7.222;2023-05-19T02:20:38;22.40;70.00
2957;DHT22;1488;51.548;7.222;2023-05-19T02:23:05;22.40;69.70
2957;DHT22;1488;51.548;7.222;2023-05-19T02:25:32;22.40;70.40
2957;DHT22;1488;51.548;7.222;2023-05-19T02:27:59;22.40;70.40
2957;DHT22;1488;51.548;7.222;2023-05-19T02:30:26;22.40;69.50
2957;DHT22;1488;51.548;7.222;2023-05-19T02:32:52;22.30;69.30
2957;DHT22;1488;51.548;7.222;2023-05-19T02:35:21;22.30;69.60
2957;DHT22;1488;51.548;7.222;2023-05-19T02:37:47;22.30;69.50
2957;DHT22;1488;51.548;7.222;2023-05-19T02:40:14;22.40;69.90
2957;DHT22;1488;51.548;7.222;2023-05-19T02:42:41;22.30;69.80
2957;DHT22;1488;51.548;7.222;2023-05-19T02:45:08;22.30;69.80
2957;DHT22;1488;51.548;7.222;2023-05-19T02:47:35;22.30;69.70
2957;DHT22;1488;51.548;7.222;2023-05-19T02:50:03;22.30;69.90
2957;DHT22;1488;51.548;7.222;2023-05-19T02:52:31;22.30;69.50
2957;DHT22;1488;51.548;7.222;2023-05-19T02:54:58;22.30;69.90
2957;DHT22;1488;51.548;7.222;2023-05-19T02:57:25;22.30;69.50
2957;DHT22;1488;51.548;7.222;2023-05-19T02:59:52;22.30;69.90
2957;DHT22;1488;51.548;7.222;2023-05-19T03:02:18;22.30;69.80
2957;DHT22;1488;51.548;7.222;2023-05-19T03:04:45;22.30;69.50
2957;DHT22;1488;51.548;7.222;2023-05-19T03:07:12;22.30;69.60
2957;DHT22;1488;51.548;7.222;2023-05-19T03:09:41;22.30;69.70
2957;DHT22;1488;51.548;7.222;2023-05-19T03:12:08;22.30;69.70
2957;DHT22;1488;51.548;7.222;2023-05-19T03:14:35;22.30;69.80
2957;DHT22;1488;51.548;7.222;2023-05-19T03:17:03;22.30;70.00
2957;DHT22;1488;51.548;7.222;2023-05-19T03:19:32;22.30;69.80
2957;DHT22;1488;51.548;7.222;2023-05-19T03:21:58;22.30;69.90
2957;DHT22;1488;51.548;7.222;2023-05-19T03:24:25;22.30;69.70
2957;DHT22;1488;51.548;7.222;2023-05-19T03:26:53;22.20;69.90
2957;DHT22;1488;51.548;7.222;2023-05-19T03:29:20;22.20;69.90
2957;DHT22;1488;51.548;7.222;2023-05-19T03:31:47;22.30;69.70
2957;DHT22;1488;51.548;7.222;2023-05-19T03:34:14;22.20;69.40
2957;DHT22;1488;51.548;7.222;2023-05-19T03:36:40;22.20;69.40
2957;DHT22;1488;51.548;7.222;2023-05-19T03:39:09;22.30;69.50
2957;DHT22;1488;51.548;7.222;2023-05-19T03:41:36;22.20;69.60
2957;DHT22;1488;51.548;7.222;2023-05-19T03:44:06;22.20;69.60
2957;DHT22;1488;51.548;7.222;2023-05-19T03:46:33;22.20;69.50
2957;DHT22;1488;51.548;7.222;2023-05-19T03:49:00;22.20;69.80
2957;DHT22;1488;51.548;7.222;2023-05-19T03:51:27;22.20;69.60
2957;DHT22;1488;51.548;7.222;2023-05-19T03:53:54;22.20;69.80
2957;DHT22;1488;51.548;7.222;2023-05-19T03:56:21;22.20;69.90
2957;DHT22;1488;51.548;7.222;2023-05-19T03:58:50;22.20;70.60
2957;DHT22;1488;51.548;7.222;2023-05-19T04:01:20;22.20;69.70
2957;DHT22;1488;51.548;7.222;2023-05-19T04:03:47;22.20;70.00
2957;DHT22;1488;51.548;7.222;2023-05-19T04:06:14;22.20;70.00
2957;DHT22;1488;51.548;7.222;2023-05-19T04:08:41;22.20;69.80
2957;DHT22;1488;51.548;7.222;2023-05-19T04:11:09;22.20;69.90
2957;DHT22;1488;51.548;7.222;2023-05-19T04:13:37;22.20;69.90
2957;DHT22;1488;51.548;7.222;2023-05-19T04:16:04;22.20;70.00
2957;DHT22;1488;51.548;7.222;2023-05-19T04:18:32;22.20;69.90
2957;DHT22;1488;51.548;7.222;2023-05-19T04:20:59;22.20;69.60
2957;DHT22;1488;51.548;7.222;2023-05-19T04:23:26;22.30;69.80
2957;DHT22;1488;51.548;7.222;2023-05-19T04:25:53;22.20;70.00
2957;DHT22;1488;51.548;7.222;2023-05-19T04:28:21;22.20;69.70
2957;DHT22;1488;51.548;7.222;2023-05-19T04:30:48;22.30;69.80
2957;DHT22;1488;51.548;7.222;2023-05-19T04:33:15;22.20;70.00
2957;DHT22;1488;51.548;7.222;2023-05-19T04:35:43;22.20;69.10
2957;DHT22;1488;51.548;7.222;2023-05-19T04:38:10;22.10;62.60
2957;DHT22;1488;51.548;7.222;2023-05-19T04:40:37;22.00;61.00
2957;DHT22;1488;51.548;7.222;2023-05-19T04:43:06;21.80;59.80
2957;DHT22;1488;51.548;7.222;2023-05-19T04:45:34;21.70;59.40
2957;DHT22;1488;51.548;7.222;2023-05-19T04:48:02;21.60;59.00
2957;DHT22;1488;51.548;7.222;2023-05-19T04:50:29;21.50;59.00
2957;DHT22;1488;51.548;7.222;2023-05-19T04:52:58;21.40;59.10
2957;DHT22;1488;51.548;7.222;2023-05-19T04:55:25;21.30;59.30
2957;DHT22;1488;51.548;7.222;2023-05-19T04:57:52;21.30;59.30
2957;DHT22;1488;51.548;7.222;2023-05-19T05:00:20;21.20;59.20
2957;DHT22;1488;51.548;7.222;2023-05-19T05:02:46;21.20;59.20
2957;DHT22;1488;51.548;7.222;2023-05-19T05:05:14;21.20;59.30
2957;DHT22;1488;51.548;7.222;2023-05-19T05:07:42;21.10;59.10
2957;DHT22;1488;51.548;7.222;2023-05-19T05:10:11;21.10;59.20
2957;DHT22;1488;51.548;7.222;2023-05-19T05:12:38;21.00;59.20
2957;DHT22;1488;51.548;7.222;2023-05-19T05:15:06;21.00;59.00
2957;DHT22;1488;51.548;7.222;2023-05-19T05:17:34;20.90;59.00
2957;DHT22;1488;51.548;7.222;2023-05-19T05:20:02;20.80;59.10
2957;DHT22;1488;51.548;7.222;2023-05-19T05:22:31;20.80;59.10
2957;DHT22;1488;51.548;7.222;2023-05-19T05:24:58;20.70;59.30
2957;DHT22;1488;51.548;7.222;2023-05-19T05:27:26;20.70;59.60
2957;DHT22;1488;51.548;7.222;2023-05-19T05:29:53;20.60;59.50
2957;DHT22;1488;51.548;7.222;2023-05-19T05:32:20;20.50;59.60
2957;DHT22;1488;51.548;7.222;2023-05-19T05:34:47;20.50;59.90
2957;DHT22;1488;51.548;7.222;2023-05-19T05:37:15;20.50;60.00
2957;DHT22;1488;51.548;7.222;2023-05-19T05:39:42;20.60;60.70
2957;DHT22;1488;51.548;7.222;2023-05-19T05:42:09;20.70;61.60
2957;DHT22;1488;51.548;7.222;2023-05-19T05:44:37;20.80;63.20
2957;DHT22;1488;51.548;7.222;2023-05-19T05:47:05;20.90;63.40
2957;DHT22;1488;51.548;7.222;2023-05-19T05:49:33;21.00;63.90
2957;DHT22;1488;51.548;7.222;2023-05-19T05:52:03;21.10;64.30
2957;DHT22;1488;51.548;7.222;2023-05-19T05:54:32;21.20;64.00
2957;DHT22;1488;51.548;7.222;2023-05-19T05:56:59;21.30;64.70
2957;DHT22;1488;51.548;7.222;2023-05-19T05:59:26;21.40;64.90
2957;DHT22;1488;51.548;7.222;2023-05-19T06:01:55;21.40;64.20
2957;DHT22;1488;51.548;7.222;2023-05-19T06:04:21;21.50;65.60
2957;DHT22;1488;51.548;7.222;2023-05-19T06:06:50;21.50;62.80
2957;DHT22;1488;51.548;7.222;2023-05-19T06:09:18;21.40;60.90
2957;DHT22;1488;51.548;7.222;2023-05-19T06:11:45;21.30;60.80
2957;DHT22;1488;51.548;7.222;2023-05-19T06:14:12;21.40;61.30
2957;DHT22;1488;51.548;7.222;2023-05-19T06:16:39;21.30;60.80
2957;DHT22;1488;51.548;7.222;2023-05-19T06:19:07;21.40;61.50
2957;DHT22;1488;51.548;7.222;2023-05-19T06:21:34;21.40;62.30
2957;DHT22;1488;51.548;7.222;2023-05-19T06:24:01;21.50;63.10
2957;DHT22;1488;51.548;7.222;2023-05-19T06:26:28;21.50;63.90
2957;DHT22;1488;51.548;7.222;2023-05-19T06:28:55;21.50;64.70
2957;DHT22;1488;51.548;7.222;2023-05-19T06:31:22;21.60;65.30
2957;DHT22;1488;51.548;7.222;2023-05-19T06:33:51;21.50;65.70
2957;DHT22;1488;51.548;7.222;2023-05-19T06:36:19;21.60;66.30
2957;DHT22;1488;51.548;7.222;2023-05-19T06:38:47;21.60;66.30
2957;DHT22;1488;51.548;7.222;2023-05-19T06:41:14;21.70;67.40
2957;DHT22;1488;51.548;7.222;2023-05-19T06:43:41;21.70;66.50
2957;DHT22;1488;51.548;7.222;2023-05-19T06:46:08;21.70;65.00
2957;DHT22;1488;51.548;7.222;2023-05-19T06:48:37;21.70;63.00
2957;DHT22;1488;51.548;7.222;2023-05-19T06:51:04;21.70;64.00
2957;DHT22;1488;51.548;7.222;2023-05-19T06:53:33;21.70;62.90
2957;DHT22;1488;51.548;7.222;2023-05-19T06:56:00;21.70;62.50
2957;DHT22;1488;51.548;7.222;2023-05-19T06:58:27;21.80;63.70
2957;DHT22;1488;51.548;7.222;2023-05-19T07:00:54;21.80;63.70
2957;DHT22;1488;51.548;7.222;2023-05-19T07:03:20;21.70;63.20
2957;DHT22;1488;51.548;7.222;2023-05-19T07:05:47;21.80;62.00
2957;DHT22;1488;51.548;7.222;2023-05-19T07:08:15;21.80;61.40
2957;DHT22;1488;51.548;7.222;2023-05-19T07:10:44;21.80;62.60
2957;DHT22;1488;51.548;7.222;2023-05-19T07:13:11;21.80;63.10
2957;DHT22;1488;51.548;7.222;2023-05-19T07:15:38;21.80;62.30
2957;DHT22;1488;51.548;7.222;2023-05-19T07:18:04;21.80;63.10
2957;DHT22;1488;51.548;7.222;2023-05-19T07:20:33;21.80;64.70
2957;DHT22;1488;51.548;7.222;2023-05-19T07:22:59;21.90;65.10
2957;DHT22;1488;51.548;7.222;2023-05-19T07:25:27;21.90;65.80
2957;DHT22;1488;51.548;7.222;2023-05-19T07:27:56;21.90;65.70
2957;DHT22;1488;51.548;7.222;2023-05-19T07:30:23;21.90;66.30
2957;DHT22;1488;51.548;7.222;2023-05-19T07:32:50;21.90;65.20
2957;DHT22;1488;51.548;7.222;2023-05-19T07:35:17;21.90;65.20
2957;DHT22;1488;51.548;7.222;2023-05-19T07:37:43;22.00;66.10
2957;DHT22;1488;51.548;7.222;2023-05-19T07:40:11;22.00;66.60
2957;DHT22;1488;51.548;7.222;2023-05-19T07:42:37;22.00;66.00
2957;DHT22;1488;51.548;7.222;2023-05-19T07:45:07;22.00;65.90
2957;DHT22;1488;51.548;7.222;2023-05-19T07:47:34;22.00;65.70
2957;DHT22;1488;51.548;7.222;2023-05-19T07:50:01;22.00;65.90
2957;DHT22;1488;51.548;7.222;2023-05-19T07:52:28;22.00;65.90
2957;DHT22;1488;51.548;7.222;2023-05-19T07:54:55;22.00;65.50
2957;DHT22;1488;51.548;7.222;2023-05-19T07:57:22;22.00;66.10
2957;DHT22;1488;51.548;7.222;2023-05-19T07:59:48;22.10;65.90
2957;DHT22;1488;51.548;7.222;2023-05-19T08:02:17;22.10;66.70
2957;DHT22;1488;51.548;7.222;2023-05-19T08:04:44;22.10;66.50
2957;DHT22;1488;51.548;7.222;2023-05-19T08:07:11;22.10;66.10
2957;DHT22;1488;51.548;7.222;2023-05-19T08:09:37;22.10;66.70
2957;DHT22;1488;51.548;7.222;2023-05-19T08:12:05;22.10;66.60
2957;DHT22;1488;51.548;7.222;2023-05-19T08:14:31;22.10;66.60
2957;DHT22;1488;51.548;7.222;2023-05-19T08:16:59;22.20;66.60
2957;DHT22;1488;51.548;7.222;2023-05-19T08:19:27;22.20;66.90
2957;DHT22;1488;51.548;7.222;2023-05-19T08:21:54;22.20;66.90
2957;DHT22;1488;51.548;7.222;2023-05-19T08:24:22;22.20;67.10
2957;DHT22;1488;51.548;7.222;2023-05-19T08:26:48;22.20;67.10
2957;DHT22;1488;51.548;7.222;2023-05-19T08:29:16;22.30;66.90
2957;DHT22;1488;51.548;7.222;2023-05-19T08:31:43;22.30;67.30
2957;DHT22;1488;51.548;7.222;2023-05-19T08:34:10;22.30;67.20
2957;DHT22;1488;51.548;7.222;2023-05-19T08:36:40;22.30;68.10
2957;DHT22;1488;51.548;7.222;2023-05-19T08:39:09;22.40;67.70
2957;DHT22;1488;51.548;7.222;2023-05-19T08:41:37;22.40;67.60
2957;DHT22;1488;51.548;7.222;2023-05-19T08:44:04;22.40;67.90
2957;DHT22;1488;51.548;7.222;2023-05-19T08:46:31;22.50;68.20
2957;DHT22;1488;51.548;7.222;2023-05-19T08:49:04;22.50;67.90
2957;DHT22;1488;51.548;7.222;2023-05-19T08:51:38;22.50;67.80
2957;DHT22;1488;51.548;7.222;2023-05-19T08:54:13;22.50;67.90
2957;DHT22;1488;51.548;7.222;2023-05-19T08:56:42;22.50;66.90
2957;DHT22;1488;51.548;7.222;2023-05-19T08:59:10;22.50;67.30
2957;DHT22;1488;51.548;7.222;2023-05-19T09:01:38;22.50;67.00
2957;DHT22;1488;51.548;7.222;2023-05-19T09:04:05;22.50;67.30
2957;DHT22;1488;51.548;7.222;2023-05-19T09:06:32;22.50;67.20
2957;DHT22;1488;51.548;7.222;2023-05-19T09:08:59;22.50;67.50
2957;DHT22;1488;51.548;7.222;2023-05-19T09:11:27;22.50;68.00
2957;DHT22;1488;51.548;7.222;2023-05-19T09:13:54;22.50;67.80
2957;DHT22;1488;51.548;7.222;2023-05-19T09:16:21;22.50;68.10
2957;DHT22;1488;51.548;7.222;2023-05-19T09:18:55;22.50;68.50
2957;DHT22;1488;51.548;7.222;2023-05-19T09:21:26;22.50;68.50
2957;DHT22;1488;51.548;7.222;2023-05-19T09:23:55;22.60;68.40
2957;DHT22;1488;51.548;7.222;2023-05-19T09:26:22;22.60;67.80
2957;DHT22;1488;51.548;7.222;2023-05-19T09:28:50;22.60;67.50
2957;DHT22;1488;51.548;7.222;2023-05-19T09:31:17;22.60;67.80
2957;DHT22;1488;51.548;7.222;2023-05-19T09:33:44;22.60;67.90
2957;DHT22;1488;51.548;7.222;2023-05-19T09:36:10;22.60;67.90
2957;DHT22;1488;51.548;7.222;2023-05-19T09:38:38;22.60;67.90
2957;DHT22;1488;51.548;7.222;2023-05-19T09:41:06;22.60;67.80
2957;DHT22;1488;51.548;7.222;2023-05-19T09:43:34;22.60;67.60
2957;DHT22;1488;51.548;7.222;2023-05-19T09:46:04;22.60;67.40
2957;DHT22;1488;51.548;7.222;2023-05-19T09:48:31;22.60;68.60
2957;DHT22;1488;51.548;7.222;2023-05-19T09:50:59;22.70;68.60
2957;DHT22;1488;51.548;7.222;2023-05-19T09:53:28;22.70;68.70
2957;DHT22;1488;51.548;7.222;2023-05-19T09:55:56;22.80;68.40
2957;DHT22;1488;51.548;7.222;2023-05-19T09:58:23;22.90;68.50
2957;DHT22;1488;51.548;7.222;2023-05-19T10:00:51;22.90;68.60
2957;DHT22;1488;51.548;7.222;2023-05-19T10:03:21;23.00;68.70
2957;DHT22;1488;51.548;7.222;2023-05-19T10:05:48;23.00;68.70
2957;DHT22;1488;51.548;7.222;2023-05-19T10:08:16;23.10;68.70
2957;DHT22;1488;51.548;7.222;2023-05-19T10:10:45;23.10;68.90
2957;DHT22;1488;51.548;7.222;2023-05-19T10:13:12;23.20;68.90
2957;DHT22;1488;51.548;7.222;2023-05-19T10:15:40;23.20;68.90
2957;DHT22;1488;51.548;7.222;2023-05-19T10:18:08;23.20;68.90
2957;DHT22;1488;51.548;7.222;2023-05-19T10:20:36;23.30;68.70
2957;DHT22;1488;51.548;7.222;2023-05-19T10:23:05;23.30;69.00
2957;DHT22;1488;51.548;7.222;2023-05-19T10:25:32;23.40;69.10
2957;DHT22;1488;51.548;7.222;2023-05-19T10:28:02;23.40;69.30
2957;DHT22;1488;51.548;7.222;2023-05-19T10:30:33;23.40;69.30
2957;DHT22;1488;51.548;7.222;2023-05-19T10:33:01;23.40;69.20
2957;DHT22;1488;51.548;7.222;2023-05-19T10:35:41;23.60;69.50
2957;DHT22;1488;51.548;7.222;2023-05-19T10:38:16;23.40;68.40
2957;DHT22;1488;51.548;7.222;2023-05-19T10:40:55;23.30;69.00
2957;DHT22;1488;51.548;7.222;2023-05-19T10:43:35;23.40;69.40
2957;DHT22;1488;51.548;7.222;2023-05-19T10:46:03;23.40;69.30
2957;DHT22;1488;51.548;7.222;2023-05-19T10:48:32;23.40;68.80
2957;DHT22;1488;51.548;7.222;2023-05-19T10:51:02;23.40;69.10
2957;DHT22;1488;51.548;7.222;2023-05-19T10:53:31;23.50;68.80
2957;DHT22;1488;51.548;7.222;2023-05-19T10:56:00;23.50;68.70
2957;DHT22;1488;51.548;7.222;2023-05-19T10:58:39;23.50;68.70
2957;DHT22;1488;51.548;7.222;2023-05-19T11:01:15;23.60;68.90
2957;DHT22;1488;51.548;7.222;2023-05-19T11:03:44;23.60;68.70
2957;DHT22;1488;51.548;7.222;2023-05-19T11:06:18;23.50;68.60
2957;DHT22;1488;51.548;7.222;2023-05-19T11:08:45;23.60;69.00
2957;DHT22;1488;51.548;7.222;2023-05-19T11:11:14;23.60;69.00
2957;DHT22;1488;51.548;7.222;2023-05-19T11:13:45;23.60;69.00
2957;DHT22;1488;51.548;7.222;2023-05-19T11:16:13;23.60;69.00
2957;DHT22;1488;51.548;7.222;2023-05-19T11:18:40;23.70;69.30
2957;DHT22;1488;51.548;7.222;2023-05-19T11:21:07;23.70;69.10
2957;DHT22;1488;51.548;7.222;2023-05-19T11:23:38;23.70;68.80
2957;DHT22;1488;51.548;7.222;2023-05-19T11:26:06;23.70;68.60
2957;DHT22;1488;51.548;7.222;2023-05-19T11:28:34;23.70;68.80
2957;DHT22;1488;51.548;7.222;2023-05-19T11:31:04;23.80;69.00
2957;DHT22;1488;51.548;7.222;2023-05-19T11:33:33;23.80;68.90
2957;DHT22;1488;51.548;7.222;2023-05-19T11:36:00;23.80;68.70
2957;DHT22;1488;51.548;7.222;2023-05-19T11:38:28;23.80;68.90
2957;DHT22;1488;51.548;7.222;2023-05-19T11:40:57;23.80;68.60
2957;DHT22;1488;51.548;7.222;2023-05-19T11:43:24;23.80;68.90
2957;DHT22;1488;51.548;7.222;2023-05-19T11:45:52;23.90;68.70
2957;DHT22;1488;51.548;7.222;2023-05-19T11:48:20;23.90;68.00
2957;DHT22;1488;51.548;7.222;2023-05-19T11:50:48;23.80;68.20
2957;DHT22;1488;51.548;7.222;2023-05-19T11:53:17;23.80;68.60
2957;DHT22;1488;51.548;7.222;2023-05-19T11:55:46;23.80;68.60
2957;DHT22;1488;51.548;7.222;2023-05-19T11:58:15;23.80;68.90
2957;DHT22;1488;51.548;7.222;2023-05-19T12:00:43;23.80;69.00
2957;DHT22;1488;51.548;7.222;2023-05-19T12:03:12;23.90;69.20
2957;DHT22;1488;51.548;7.222;2023-05-19T12:05:41;23.90;68.80
2957;DHT22;1488;51.548;7.222;2023-05-19T12:08:09;23.80;68.00
2957;DHT22;1488;51.548;7.222;2023-05-19T12:10:37;23.70;67.20
2957;DHT22;1488;51.548;7.222;2023-05-19T12:13:04;23.70;68.30
2957;DHT22;1488;51.548;7.222;2023-05-19T12:15:34;23.70;68.40
2957;DHT22;1488;51.548;7.222;2023-05-19T12:18:02;23.70;68.70
2957;DHT22;1488;51.548;7.222;2023-05-19T12:20:30;23.70;69.00
2957;DHT22;1488;51.548;7.222;2023-05-19T12:22:57;23.70;68.90
2957;DHT22;1488;51.548;7.222;2023-05-19T12:25:25;23.70;68.80
2957;DHT22;1488;51.548;7.222;2023-05-19T12:27:56;23.80;68.90
2957;DHT22;1488;51.548;7.222;2023-05-19T12:30:25;23.80;68.70
2957;DHT22;1488;51.548;7.222;2023-05-19T12:32:55;23.80;68.70
2957;DHT22;1488;51.548;7.222;2023-05-19T12:35:25;23.80;68.60
2957;DHT22;1488;51.548;7.222;2023-05-19T12:37:52;23.80;66.90
2957;DHT22;1488;51.548;7.222;2023-05-19T12:40:20;23.70;66.00
2957;DHT22;1488;51.548;7.222;2023-05-19T12:42:48;23.60;66.40
2957;DHT22;1488;51.548;7.222;2023-05-19T12:45:19;23.60;66.10
2957;DHT22;1488;51.548;7.222;2023-05-19T12:47:47;23.60;66.60
2957;DHT22;1488;51.548;7.222;2023-05-19T12:50:16;23.50;66.20
2957;DHT22;1488;51.548;7.222;2023-05-19T12:52:46;23.50;66.40
2957;DHT22;1488;51.548;7.222;2023-05-19T12:55:15;23.40;68.00
2957;DHT22;1488;51.548;7.222;2023-05-19T12:57:43;23.50;68.60
2957;DHT22;1488;51.548;7.222;2023-05-19T13:00:14;23.50;68.50
2957;DHT22;1488;51.548;7.222;2023-05-19T13:02:55;23.60;68.90
2957;DHT22;1488;51.548;7.222;2023-05-19T13:05:24;23.60;68.90
2957;DHT22;1488;51.548;7.222;2023-05-19T13:07:58;23.70;68.60
2957;DHT22;1488;51.548;7.222;2023-05-19T13:10:27;23.70;68.80
2957;DHT22;1488;51.548;7.222;2023-05-19T13:12:54;23.80;69.00
2957;DHT22;1488;51.548;7.222;2023-05-19T13:15:22;23.80;69.10
2957;DHT22;1488;51.548;7.222;2023-05-19T13:17:49;23.80;69.10
2957;DHT22;1488;51.548;7.222;2023-05-19T13:20:16;23.80;69.20
2957;DHT22;1488;51.548;7.222;2023-05-19T13:22:45;23.80;69.50
2957;DHT22;1488;51.548;7.222;2023-05-19T13:25:12;23.90;69.40
2957;DHT22;1488;51.548;7.222;2023-05-19T13:27:39;23.90;69.50
2957;DHT22;1488;51.548;7.222;2023-05-19T13:30:07;23.90;69.70
2957;DHT22;1488;51.548;7.222;2023-05-19T13:32:34;23.90;69.20
2957;DHT22;1488;51.548;7.222;2023-05-19T13:35:00;23.90;69.70
2957;DHT22;1488;51.548;7.222;2023-05-19T13:37:27;23.90;69.50
2957;DHT22;1488;51.548;7.222;2023-05-19T13:39:56;24.00;69.50
2957;DHT22;1488;51.548;7.222;2023-05-19T13:42:23;24.00;69.70
2957;DHT22;1488;51.548;7.222;2023-05-19T13:44:53;24.00;69.60
2957;DHT22;1488;51.548;7.222;2023-05-19T13:47:21;24.00;70.10
2957;DHT22;1488;51.548;7.222;2023-05-19T13:49:48;24.00;69.70
2957;DHT22;1488;51.548;7.222;2023-05-19T13:52:14;24.00;69.80
2957;DHT22;1488;51.548;7.222;2023-05-19T13:54:41;24.00;69.60
2957;DHT22;1488;51.548;7.222;2023-05-19T13:57:09;24.00;69.50
2957;DHT22;1488;51.548;7.222;2023-05-19T13:59:36;24.00;69.40
2957;DHT22;1488;51.548;7.222;2023-05-19T14:02:04;24.00;69.50
2957;DHT22;1488;51.548;7.222;2023-05-19T14:04:30;24.00;69.70
2957;DHT22;1488;51.548;7.222;2023-05-19T14:06:57;24.00;70.00
2957;DHT22;1488;51.548;7.222;2023-05-19T14:09:24;24.10;69.90
2957;DHT22;1488;51.548;7.222;2023-05-19T14:11:51;24.00;69.50
2957;DHT22;1488;51.548;7.222;2023-05-19T14:14:19;24.00;70.00
2957;DHT22;1488;51.548;7.222;2023-05-19T14:16:45;24.00;70.10
2957;DHT22;1488;51.548;7.222;2023-05-19T14:19:12;24.00;70.40
2957;DHT22;1488;51.548;7.222;2023-05-19T14:21:39;24.00;70.30
2957;DHT22;1488;51.548;7.222;2023-05-19T14:24:06;24.00;70.20
2957;DHT22;1488;51.548;7.222;2023-05-19T14:26:33;24.00;70.00
2957;DHT22;1488;51.548;7.222;2023-05-19T14:29:00;24.00;69.50
2957;DHT22;1488;51.548;7.222;2023-05-19T14:31:28;24.00;69.70
2957;DHT22;1488;51.548;7.222;2023-05-19T14:33:55;24.00;69.90
2957;DHT22;1488;51.548;7.222;2023-05-19T14:36:21;24.10;70.10
2957;DHT22;1488;51.548;7.222;2023-05-19T14:38:48;24.10;70.00
2957;DHT22;1488;51.548;7.222;2023-05-19T14:41:15;24.10;70.10
2957;DHT22;1488;51.548;7.222;2023-05-19T14:43:42;24.00;70.00
2957;DHT22;1488;51.548;7.222;2023-05-19T14:46:08;24.00;70.00
2957;DHT22;1488;51.548;7.222;2023-05-19T14:48:37;24.00;70.20
2957;DHT22;1488;51.548;7.222;2023-05-19T14:51:03;24.00;69.90
2957;DHT22;1488;51.548;7.222;2023-05-19T14:53:30;24.00;69.80
2957;DHT22;1488;51.548;7.222;2023-05-19T14:55:57;24.00;70.20
2957;DHT22;1488;51.548;7.222;2023-05-19T14:58:24;24.20;70.40
2957;DHT22;1488;51.548;7.222;2023-05-19T15:00:50;24.00;70.30
2957;DHT22;1488;51.548;7.222;2023-05-19T15:03:17;24.00;70.00
2957;DHT22;1488;51.548;7.222;2023-05-19T15:05:45;24.00;70.40
2957;DHT22;1488;51.548;7.222;2023-05-19T15:08:13;24.00;70.30
2957;DHT22;1488;51.548;7.222;2023-05-19T15:10:40;24.00;70.40
2957;DHT22;1488;51.548;7.222;2023-05-19T15:13:07;24.00;69.60
2957;DHT22;1488;51.548;7.222;2023-05-19T15:15:34;24.00;69.80
2957;DHT22;1488;51.548;7.222;2023-05-19T15:18:00;23.90;70.10
2957;DHT22;1488;51.548;7.222;2023-05-19T15:20:27;23.90;70.10
2957;DHT22;1488;51.548;7.222;2023-05-19T15:22:55;24.00;69.90
2957;DHT22;1488;51.548;7.222;2023-05-19T15:25:22;23.90;70.20
2957;DHT22;1488;51.548;7.222;2023-05-19T15:27:49;23.90;70.20
2957;DHT22;1488;51.548;7.222;2023-05-19T15:30:15;23.90;70.20
2957;DHT22;1488;51.548;7.222;2023-05-19T15:32:42;23.90;70.20
2957;DHT22;1488;51.548;7.222;2023-05-19T15:35:09;24.00;70.90
2957;DHT22;1488;51.548;7.222;2023-05-19T15:37:36;23.90;70.40
2957;DHT22;1488;51.548;7.222;2023-05-19T15:40:05;23.90;70.30
2957;DHT22;1488;51.548;7.222;2023-05-19T15:42:32;23.90;70.40
2957;DHT22;1488;51.548;7.222;2023-05-19T15:44:59;23.90;70.30
2957;DHT22;1488;51.548;7.222;2023-05-19T15:47:26;23.90;70.50
2957;DHT22;1488;51.548;7.222;2023-05-19T15:49:52;23.90;70.20
2957;DHT22;1488;51.548;7.222;2023-05-19T15:52:19;24.00;70.40
2957;DHT22;1488;51.548;7.222;2023-05-19T15:54:46;23.90;70.00
2957;DHT22;1488;51.548;7.222;2023-05-19T15:57:14;23.90;70.00
2957;DHT22;1488;51.548;7.222;2023-05-19T15:59:41;23.90;70.00
2957;DHT22;1488;51.548;7.222;2023-05-19T16:02:08;23.90;70.00
2957;DHT22;1488;51.548;7.222;2023-05-19T16:04:34;23.80;70.00
2957;DHT22;1488;51.548;7.222;2023-05-19T16:07:02;23.80;69.90
2957;DHT22;1488;51.548;7.222;2023-05-19T16:09:29;23.80;69.90
2957;DHT22;1488;51.548;7.222;2023-05-19T16:11:55;23.90;69.60